createdAt,value
2023-04-16T00:01:31.111Z,9.40
2023-04-16T00:04:00.034Z,9.40
2023-04-16T00:06:28.824Z,9.40
2023-04-16T00:08:58.775Z,9.40
2023-04-16T00:11:27.278Z,9.40
2023-04-16T00:13:55.764Z,9.40
2023-04-16T00:16:24.198Z,9.40
2023-04-16T00:18:52.676Z,9.40
2023-04-16T00:21:21.252Z,9.40
2023-04-16T00:23:49.952Z,9.40
2023-04-16T00:26:19.801Z,9.40
2023-04-16T00:28:48.381Z,9.30
2023-04-16T00:31:17.259Z,9.40
2023-04-16T00:33:45.993Z,9.40
2023-04-16T00:36:14.553Z,9.30
2023-04-16T00:38:43.117Z,9.40
2023-04-16T00:41:11.651Z,9.40
2023-04-16T00:43:41.807Z,9.40
2023-04-16T00:46:10.523Z,9.40
2023-04-16T00:48:41.176Z,9.40
2023-04-16T00:51:11.709Z,9.40
2023-04-16T00:53:40.406Z,9.30
2023-04-16T00:56:09.558Z,9.40
2023-04-16T00:58:38.147Z,9.40
2023-04-16T01:01:08.317Z,9.40
2023-04-16T01:03:41.344Z,9.30
2023-04-16T01:06:11.052Z,9.40
2023-04-16T01:08:40.313Z,9.40
2023-04-16T01:11:09.263Z,9.40
2023-04-16T01:13:39.951Z,9.40
2023-04-16T01:16:11.461Z,9.40
2023-04-16T01:18:40.113Z,9.40
2023-04-16T01:21:10.089Z,9.40
2023-04-16T01:23:38.751Z,9.40
2023-04-16T01:26:07.213Z,9.40
2023-04-16T01:28:36.188Z,9.40
2023-04-16T01:31:04.711Z,9.40
2023-04-16T01:33:34.274Z,9.40
2023-04-16T01:36:02.752Z,9.30
2023-04-16T01:38:32.448Z,9.40
2023-04-16T01:41:02.556Z,9.30
2023-04-16T01:43:30.998Z,9.40
2023-04-16T01:46:12.600Z,9.40
2023-04-16T01:48:41.082Z,9.40
2023-04-16T01:51:10.584Z,9.40
2023-04-16T01:53:40.963Z,9.40
2023-04-16T01:56:09.669Z,9.30
2023-04-16T01:58:38.746Z,9.30
2023-04-16T02:01:07.539Z,9.30
2023-04-16T02:03:36.666Z,9.30
2023-04-16T02:06:05.788Z,9.30
2023-04-16T02:08:34.848Z,9.40
2023-04-16T02:11:04.906Z,9.30
2023-04-16T02:13:33.609Z,9.30
2023-04-16T02:16:02.752Z,9.30
2023-04-16T02:18:31.634Z,9.30
2023-04-16T02:21:01.053Z,9.30
2023-04-16T02:23:29.772Z,9.30
2023-04-16T02:25:58.479Z,9.30
2023-04-16T02:28:28.871Z,9.20
2023-04-16T02:30:57.643Z,9.20
2023-04-16T02:33:27.598Z,9.20
2023-04-16T02:35:56.433Z,9.20
2023-04-16T02:38:25.080Z,9.20
2023-04-16T02:40:53.778Z,9.20
2023-04-16T02:43:22.479Z,9.30
2023-04-16T02:45:52.802Z,9.30
2023-04-16T02:48:21.951Z,9.20
2023-04-16T02:50:50.808Z,9.20
2023-04-16T02:53:19.604Z,9.20
2023-04-16T02:55:53.312Z,9.10
2023-04-16T02:58:22.468Z,9.10
2023-04-16T03:00:53.021Z,9.10
2023-04-16T03:03:22.103Z,9.10
2023-04-16T03:05:51.358Z,9.20
2023-04-16T03:08:19.943Z,9.10
2023-04-16T03:10:48.653Z,9.10
2023-04-16T03:13:17.269Z,9.10
2023-04-16T03:15:51.730Z,9.00
2023-04-16T03:18:20.528Z,9.00
2023-04-16T03:20:53.556Z,9.00
2023-04-16T03:23:22.383Z,9.00
2023-04-16T03:25:51.201Z,9.00
2023-04-16T03:28:19.846Z,9.10
2023-04-16T03:30:53.939Z,8.90
2023-04-16T03:33:23.001Z,9.00
2023-04-16T03:35:57.556Z,9.00
2023-04-16T03:38:26.840Z,9.00
2023-04-16T03:40:55.373Z,9.00
2023-04-16T03:43:23.920Z,9.00
2023-04-16T03:45:53.649Z,8.90
2023-04-16T03:48:22.215Z,8.80
2023-04-16T03:50:50.706Z,8.70
2023-04-16T03:53:19.148Z,8.90
2023-04-16T03:55:50.802Z,8.80
2023-04-16T03:58:19.260Z,8.70
2023-04-16T04:00:47.903Z,8.70
2023-04-16T04:03:18.611Z,8.70
2023-04-16T04:05:47.079Z,8.70
2023-04-16T04:08:15.506Z,8.70
2023-04-16T04:10:43.699Z,8.80
2023-04-16T04:13:11.959Z,8.70
2023-04-16T04:15:40.161Z,8.70
2023-04-16T04:18:08.353Z,8.80
2023-04-16T04:20:41.046Z,8.80
2023-04-16T04:23:09.398Z,8.80
2023-04-16T04:25:37.766Z,8.80
2023-04-16T04:28:06.301Z,8.80
2023-04-16T04:30:35.882Z,8.70
2023-04-16T04:33:04.163Z,8.70
2023-04-16T04:35:32.620Z,8.70
2023-04-16T04:38:02.936Z,8.70
2023-04-16T04:40:31.249Z,8.60
2023-04-16T04:42:59.513Z,8.60
2023-04-16T04:45:31.945Z,8.60
2023-04-16T04:48:00.445Z,8.60
2023-04-16T04:50:28.835Z,8.60
2023-04-16T04:52:57.064Z,8.60
2023-04-16T04:55:26.749Z,8.60
2023-04-16T04:57:55.074Z,8.60
2023-04-16T05:00:23.353Z,8.60
2023-04-16T05:02:52.159Z,8.60
2023-04-16T05:05:21.060Z,8.60
2023-04-16T05:07:49.288Z,8.60
2023-04-16T05:10:17.723Z,8.60
2023-04-16T05:12:48.943Z,8.70
2023-04-16T05:15:17.715Z,8.60
2023-04-16T05:17:46.078Z,8.60
2023-04-16T05:20:14.390Z,8.60
2023-04-16T05:22:42.628Z,8.50
2023-04-16T05:25:11.245Z,8.60
2023-04-16T05:27:39.563Z,8.60
2023-04-16T05:30:10.491Z,8.60
2023-04-16T05:32:39.956Z,8.60
2023-04-16T05:35:09.595Z,8.60
2023-04-16T05:37:38.010Z,8.60
2023-04-16T05:40:07.206Z,8.60
2023-04-16T05:42:35.448Z,8.60
2023-04-16T05:45:04.900Z,8.60
2023-04-16T05:47:34.572Z,8.60
2023-04-16T05:50:02.956Z,8.60
2023-04-16T05:52:31.305Z,8.70
2023-04-16T05:55:01.803Z,8.60
2023-04-16T05:57:30.540Z,8.60
2023-04-16T05:59:59.055Z,8.60
2023-04-16T06:02:27.553Z,8.60
2023-04-16T06:04:57.304Z,8.60
2023-04-16T06:07:25.527Z,8.70
2023-04-16T06:09:53.780Z,8.70
2023-04-16T06:12:21.959Z,8.60
2023-04-16T06:14:50.231Z,8.70
2023-04-16T06:17:19.484Z,8.70
2023-04-16T06:19:47.710Z,8.60
2023-04-16T06:22:17.490Z,8.70
2023-04-16T06:24:45.996Z,8.70
2023-04-16T06:27:14.282Z,8.70
2023-04-16T06:29:42.541Z,8.80
2023-04-16T06:32:11.252Z,8.90
2023-04-16T06:34:39.644Z,8.90
2023-04-16T06:37:10.319Z,8.80
2023-04-16T06:39:40.826Z,8.80
2023-04-16T06:42:09.185Z,8.80
2023-04-16T06:44:37.682Z,8.90
2023-04-16T06:47:05.997Z,8.90
2023-04-16T06:49:34.289Z,9.00
2023-04-16T06:52:05.162Z,8.90
2023-04-16T06:54:34.136Z,8.90
2023-04-16T06:57:03.777Z,8.90
2023-04-16T06:59:32.055Z,8.90
2023-04-16T07:02:00.437Z,8.90
2023-04-16T07:04:28.863Z,9.00
2023-04-16T07:06:57.209Z,8.90
2023-04-16T07:09:26.824Z,8.90
2023-04-16T07:11:55.521Z,8.90
2023-04-16T07:14:25.229Z,9.00
2023-04-16T07:16:53.491Z,9.00
2023-04-16T07:19:21.921Z,9.10
2023-04-16T07:21:50.484Z,9.00
2023-04-16T07:24:18.729Z,9.10
2023-04-16T07:26:47.010Z,9.20
2023-04-16T07:29:15.225Z,9.10
2023-04-16T07:31:44.923Z,9.10
2023-04-16T07:34:14.215Z,9.10
2023-04-16T07:36:42.550Z,9.10
2023-04-16T07:39:13.231Z,9.00
2023-04-16T07:41:41.666Z,9.10
2023-04-16T07:44:10.269Z,9.10
2023-04-16T07:46:46.415Z,9.00
2023-04-16T07:49:16.908Z,9.10
2023-04-16T07:51:45.209Z,9.00
2023-04-16T07:54:13.474Z,9.10
2023-04-16T07:56:41.822Z,9.10
2023-04-16T07:59:22.127Z,9.10
2023-04-16T08:01:53.654Z,9.10
2023-04-16T08:04:26.464Z,9.10
2023-04-16T08:06:55.522Z,9.00
2023-04-16T08:09:28.464Z,9.00
2023-04-16T08:11:56.853Z,9.00
2023-04-16T08:14:25.180Z,9.10
2023-04-16T08:16:53.513Z,9.10
2023-04-16T08:19:23.272Z,9.10
2023-04-16T08:21:51.559Z,9.00
2023-04-16T08:24:19.803Z,9.00
2023-04-16T08:26:48.043Z,9.10
2023-04-16T08:29:16.330Z,9.20
2023-04-16T08:31:44.770Z,9.20
2023-04-16T08:34:13.379Z,9.30
2023-04-16T08:36:43.267Z,9.30
2023-04-16T08:39:11.914Z,9.30
2023-04-16T08:41:44.120Z,9.30
2023-04-16T08:44:21.019Z,9.30
2023-04-16T08:46:49.449Z,9.30
2023-04-16T08:49:19.154Z,9.70
2023-04-16T08:51:53.207Z,9.50
2023-04-16T08:54:38.524Z,9.40
2023-04-16T08:57:08.168Z,9.30
2023-04-16T08:59:37.244Z,9.40
2023-04-16T09:02:07.515Z,9.30
2023-04-16T09:04:37.944Z,9.40
2023-04-16T09:07:10.152Z,9.30
2023-04-16T09:09:39.921Z,9.30
2023-04-16T09:12:09.932Z,9.20
2023-04-16T09:14:41.833Z,9.20
2023-04-16T09:17:10.989Z,9.20
2023-04-16T09:19:39.268Z,9.30
2023-04-16T09:22:09.075Z,9.20
2023-04-16T09:24:38.611Z,9.20
2023-04-16T09:27:07.111Z,9.20
2023-04-16T09:29:37.132Z,9.20
2023-04-16T09:32:06.952Z,9.20
2023-04-16T09:34:35.912Z,9.10
2023-04-16T09:37:17.775Z,9.30
2023-04-16T09:39:46.673Z,9.30
2023-04-16T09:42:15.810Z,9.30
2023-04-16T09:44:44.009Z,9.40
2023-04-16T09:47:12.805Z,9.60
2023-04-16T09:49:43.347Z,9.60
2023-04-16T09:52:15.534Z,9.70
2023-04-16T09:54:52.755Z,9.70
2023-04-16T09:57:24.422Z,9.70
2023-04-16T09:59:57.442Z,9.70
2023-04-16T10:02:28.441Z,9.70
2023-04-16T10:04:57.680Z,9.50
2023-04-16T10:07:29.768Z,9.50
2023-04-16T10:10:00.163Z,9.50
2023-04-16T10:12:29.960Z,9.50
2023-04-16T10:14:58.136Z,9.40
2023-04-16T10:17:29.901Z,9.40
2023-04-16T10:19:59.589Z,9.40
2023-04-16T10:22:27.824Z,9.40
2023-04-16T10:24:56.825Z,9.40
2023-04-16T10:27:28.094Z,9.50
2023-04-16T10:29:57.635Z,9.50
2023-04-16T10:32:28.731Z,9.50
2023-04-16T10:34:57.228Z,9.60
2023-04-16T10:37:32.095Z,9.80
2023-04-16T10:40:00.826Z,10.00
2023-04-16T10:42:30.635Z,10.20
2023-04-16T10:45:01.297Z,10.40
2023-04-16T10:47:31.713Z,10.20
2023-04-16T10:50:00.090Z,10.20
2023-04-16T10:52:31.285Z,10.20
2023-04-16T10:55:01.436Z,10.20
2023-04-16T10:57:31.972Z,10.10
2023-04-16T11:00:00.177Z,10.20
2023-04-16T11:02:31.003Z,10.10
2023-04-16T11:04:59.549Z,10.10
2023-04-16T11:07:35.168Z,10.10
2023-04-16T11:10:07.225Z,10.20
2023-04-16T11:12:38.658Z,10.20
2023-04-16T11:15:08.740Z,10.10
2023-04-16T11:17:40.105Z,10.10
2023-04-16T11:20:18.826Z,10.20
2023-04-16T11:22:48.848Z,10.20
2023-04-16T11:25:22.065Z,10.00
2023-04-16T11:27:52.283Z,10.20
2023-04-16T11:30:30.569Z,10.30
2023-04-16T11:32:58.954Z,10.40
2023-04-16T11:35:27.378Z,10.60
2023-04-16T11:37:58.155Z,10.80
2023-04-16T11:40:26.770Z,10.80
2023-04-16T11:42:57.658Z,10.80
2023-04-16T11:45:27.137Z,10.60
2023-04-16T11:47:57.402Z,10.70
2023-04-16T11:50:27.302Z,11.00
2023-04-16T11:52:57.019Z,11.10
2023-04-16T11:55:25.744Z,11.20
2023-04-16T11:57:55.804Z,11.20
2023-04-16T12:00:24.833Z,11.10
2023-04-16T12:02:55.051Z,11.00
2023-04-16T12:05:32.098Z,10.90
2023-04-16T12:08:01.725Z,10.80
2023-04-16T12:10:30.932Z,10.60
2023-04-16T12:13:13.787Z,10.60
2023-04-16T12:15:47.460Z,10.50
2023-04-16T12:18:16.310Z,10.50
2023-04-16T12:20:45.467Z,10.50
2023-04-16T12:23:26.447Z,10.50
2023-04-16T12:25:55.319Z,10.50
2023-04-16T12:28:37.024Z,10.50
2023-04-16T12:31:06.804Z,9.90
2023-04-16T12:33:35.604Z,10.40
2023-04-16T12:36:19.127Z,10.40
2023-04-16T12:38:47.784Z,10.30
2023-04-16T12:41:16.183Z,10.30
2023-04-16T12:43:46.875Z,10.20
2023-04-16T12:46:15.451Z,10.00
2023-04-16T12:48:44.255Z,10.00
2023-04-16T12:51:12.625Z,10.00
2023-04-16T12:53:41.318Z,10.10
2023-04-16T12:56:10.364Z,10.00
2023-04-16T12:58:39.183Z,10.00
2023-04-16T13:01:09.094Z,9.90
2023-04-16T13:03:37.808Z,10.00
2023-04-16T13:06:06.706Z,9.90
2023-04-16T13:08:35.197Z,9.80
2023-04-16T13:11:04.319Z,9.90
2023-04-16T13:13:32.728Z,9.80
2023-04-16T13:16:01.513Z,9.80
2023-04-16T13:18:31.884Z,9.80
2023-04-16T13:21:00.593Z,9.80
2023-04-16T13:23:29.565Z,9.80
2023-04-16T13:25:58.147Z,9.70
2023-04-16T13:28:27.037Z,9.80
2023-04-16T13:30:56.181Z,9.70
2023-04-16T13:33:25.269Z,9.70
2023-04-16T13:35:55.568Z,9.70
2023-04-16T13:38:24.006Z,9.60
2023-04-16T13:40:52.834Z,9.60
2023-04-16T13:43:22.462Z,9.70
2023-04-16T13:45:51.082Z,9.80
2023-04-16T13:48:19.815Z,9.70
2023-04-16T13:50:48.455Z,9.70
2023-04-16T13:53:18.402Z,9.80
2023-04-16T13:55:46.873Z,9.80
2023-04-16T13:58:15.867Z,9.90
2023-04-16T14:00:44.873Z,10.10
2023-04-16T14:03:13.609Z,10.20
2023-04-16T14:05:43.206Z,10.30
2023-04-16T14:08:13.135Z,10.30
2023-04-16T14:10:43.130Z,10.30
2023-04-16T14:13:12.404Z,10.40
2023-04-16T14:15:40.895Z,10.30
2023-04-16T14:18:09.313Z,10.20
2023-04-16T14:20:39.961Z,10.30
2023-04-16T14:23:08.657Z,10.40
2023-04-16T14:25:37.135Z,10.50
2023-04-16T14:28:07.234Z,10.70
2023-04-16T14:30:35.718Z,10.60
2023-04-16T14:33:06.733Z,10.50
2023-04-16T14:35:36.150Z,10.50
2023-04-16T14:38:04.528Z,10.50
2023-04-16T14:40:32.964Z,10.60
2023-04-16T14:43:01.368Z,10.50
2023-04-16T14:45:32.530Z,10.60
2023-04-16T14:48:01.067Z,10.60
2023-04-16T14:50:29.518Z,10.60
2023-04-16T14:52:57.859Z,10.60
2023-04-16T14:55:26.240Z,10.70
2023-04-16T14:57:54.478Z,10.70
2023-04-16T15:00:23.716Z,10.70
2023-04-16T15:02:54.238Z,10.60
2023-04-16T15:05:22.730Z,10.60
2023-04-16T15:07:51.376Z,10.70
2023-04-16T15:10:19.766Z,10.70
2023-04-16T15:12:48.156Z,10.70
2023-04-16T15:15:16.652Z,10.60
2023-04-16T15:17:45.496Z,10.60
2023-04-16T15:20:15.818Z,10.50
2023-04-16T15:22:44.236Z,10.40
2023-04-16T15:25:12.688Z,10.40
2023-04-16T15:27:40.980Z,10.40
2023-04-16T15:30:10.406Z,10.30
2023-04-16T15:32:38.807Z,10.20
2023-04-16T15:35:09.812Z,10.30
2023-04-16T15:37:41.161Z,10.20
2023-04-16T15:40:10.836Z,10.10
2023-04-16T15:42:39.981Z,10.10
2023-04-16T15:45:08.877Z,10.20
2023-04-16T15:47:39.533Z,10.20
2023-04-16T15:50:10.016Z,9.90
2023-04-16T15:52:39.545Z,10.20
2023-04-16T15:55:09.853Z,10.20
2023-04-16T15:57:38.320Z,10.20
2023-04-16T16:00:13.471Z,10.20
2023-04-16T16:02:44.118Z,10.20
2023-04-16T16:05:13.842Z,10.30
2023-04-16T16:07:42.300Z,10.30
2023-04-16T16:10:13.260Z,10.30
2023-04-16T16:12:42.214Z,10.30
2023-04-16T16:15:11.299Z,10.30
2023-04-16T16:17:40.710Z,10.30
2023-04-16T16:20:10.771Z,10.30
2023-04-16T16:22:39.435Z,10.40
2023-04-16T16:25:10.212Z,10.40
2023-04-16T16:27:42.675Z,10.30
2023-04-16T16:30:12.257Z,10.30
2023-04-16T16:32:43.193Z,10.20
2023-04-16T16:35:12.689Z,10.20
2023-04-16T16:37:43.750Z,10.10
2023-04-16T16:40:12.831Z,10.10
2023-04-16T16:42:42.897Z,10.10
2023-04-16T16:45:12.226Z,10.10
2023-04-16T16:47:40.718Z,10.00
2023-04-16T16:50:11.465Z,10.10
2023-04-16T16:52:40.164Z,10.00
2023-04-16T16:55:11.167Z,10.00
2023-04-16T16:57:39.859Z,10.00
2023-04-16T17:00:14.459Z,10.00
2023-04-16T17:02:43.176Z,10.00
2023-04-16T17:05:12.689Z,9.90
2023-04-16T17:07:41.403Z,9.90
2023-04-16T17:10:13.221Z,9.80
2023-04-16T17:12:41.602Z,9.70
2023-04-16T17:15:12.283Z,9.60
2023-04-16T17:17:40.764Z,9.60
2023-04-16T17:20:11.130Z,9.60
2023-04-16T17:22:40.066Z,9.50
2023-04-16T17:25:09.262Z,9.60
2023-04-16T17:27:37.647Z,9.50
2023-04-16T17:30:07.013Z,9.50
2023-04-16T17:32:36.832Z,9.40
2023-04-16T17:35:07.047Z,9.40
2023-04-16T17:37:35.541Z,9.40
2023-04-16T17:40:07.599Z,9.40
2023-04-16T17:42:36.270Z,9.40
2023-04-16T17:45:04.855Z,9.40
2023-04-16T17:47:35.361Z,9.40
2023-04-16T17:50:05.784Z,9.40
2023-04-16T17:52:35.160Z,9.40
2023-04-16T17:55:03.900Z,9.40
2023-04-16T17:57:32.743Z,9.40
2023-04-16T18:00:01.342Z,9.30
2023-04-16T18:02:29.917Z,9.40
2023-04-16T18:04:58.419Z,9.40
2023-04-16T18:07:28.410Z,9.40
2023-04-16T18:09:57.233Z,9.20
2023-04-16T18:12:25.615Z,9.20
2023-04-16T18:14:54.045Z,9.30
2023-04-16T18:17:23.210Z,9.20
2023-04-16T18:19:51.539Z,9.20
2023-04-16T18:22:19.949Z,9.30
2023-04-16T18:24:49.760Z,9.30
2023-04-16T18:27:18.104Z,9.20
2023-04-16T18:29:46.546Z,9.20
2023-04-16T18:32:14.998Z,9.20
2023-04-16T18:34:43.363Z,9.20
2023-04-16T18:37:11.799Z,9.10
2023-04-16T18:39:40.066Z,9.00
2023-04-16T18:42:12.124Z,9.00
2023-04-16T18:44:40.489Z,9.00
2023-04-16T18:47:08.919Z,9.00
2023-04-16T18:49:37.262Z,9.00
2023-04-16T18:52:05.983Z,8.90
2023-04-16T18:54:34.281Z,8.80
2023-04-16T18:57:02.879Z,8.80
2023-04-16T18:59:32.618Z,8.80
2023-04-16T19:02:01.016Z,8.80
2023-04-16T19:04:29.472Z,8.80
2023-04-16T19:06:57.728Z,8.80
2023-04-16T19:09:27.445Z,8.80
2023-04-16T19:11:56.134Z,8.70
2023-04-16T19:14:24.528Z,8.70
2023-04-16T19:16:54.442Z,8.60
2023-04-16T19:19:22.794Z,8.60
2023-04-16T19:21:51.156Z,8.60
2023-04-16T19:24:20.019Z,8.60
2023-04-16T19:26:48.404Z,8.50
2023-04-16T19:29:18.126Z,8.50
2023-04-16T19:31:47.501Z,8.60
2023-04-16T19:34:17.231Z,8.50
2023-04-16T19:36:46.291Z,8.40
2023-04-16T19:39:14.600Z,8.50
2023-04-16T19:41:42.951Z,8.60
2023-04-16T19:44:11.771Z,8.50
2023-04-16T19:46:40.306Z,8.50
2023-04-16T19:49:08.645Z,8.40
2023-04-16T19:51:38.589Z,8.40
2023-04-16T19:54:07.171Z,8.40
2023-04-16T19:56:35.935Z,8.30
2023-04-16T19:59:04.301Z,8.40
2023-04-16T20:01:32.666Z,8.30
2023-04-16T20:04:01.161Z,8.30
2023-04-16T20:06:29.799Z,8.20
2023-04-16T20:08:59.643Z,8.20
2023-04-16T20:11:28.007Z,8.20
2023-04-16T20:14:00.187Z,8.20
2023-04-16T20:16:28.753Z,8.20
2023-04-16T20:18:57.153Z,8.30
2023-04-16T20:21:26.369Z,8.20
2023-04-16T20:23:54.869Z,7.50
2023-04-16T20:26:25.259Z,8.10
2023-04-16T20:28:53.606Z,8.20
2023-04-16T20:31:22.015Z,8.20
2023-04-16T20:33:50.393Z,8.20
2023-04-16T20:36:18.708Z,8.20
2023-04-16T20:38:47.012Z,8.20
2023-04-16T20:41:21.053Z,8.20
2023-04-16T20:43:53.024Z,8.10
2023-04-16T20:46:24.290Z,8.10
2023-04-16T20:48:52.954Z,8.10
2023-04-16T20:51:21.640Z,8.10
2023-04-16T20:53:52.247Z,8.00
2023-04-16T20:56:21.090Z,8.00
2023-04-16T20:58:53.236Z,8.00
2023-04-16T21:01:21.963Z,8.00
2023-04-16T21:03:50.475Z,7.90
2023-04-16T21:06:22.594Z,7.90
2023-04-16T21:08:50.873Z,7.90
2023-04-16T21:11:19.162Z,7.90
2023-04-16T21:13:47.486Z,7.90
2023-04-16T21:16:17.430Z,7.90
2023-04-16T21:18:45.756Z,7.90
2023-04-16T21:21:14.045Z,7.90
2023-04-16T21:23:42.332Z,7.80
2023-04-16T21:26:10.622Z,7.80
2023-04-16T21:28:38.988Z,7.80
2023-04-16T21:31:07.369Z,7.70
2023-04-16T21:33:37.186Z,7.60
2023-04-16T21:36:05.942Z,7.70
2023-04-16T21:38:34.250Z,7.60
2023-04-16T21:41:03.390Z,7.60
2023-04-16T21:43:32.254Z,7.60
2023-04-16T21:46:00.945Z,7.60
2023-04-16T21:48:29.396Z,7.60
2023-04-16T21:51:00.189Z,7.50
2023-04-16T21:53:29.676Z,7.50
2023-04-16T21:55:57.970Z,7.50
2023-04-16T21:58:26.682Z,7.40
2023-04-16T22:00:55.344Z,7.50
2023-04-16T22:03:26.719Z,7.50
2023-04-16T22:06:01.743Z,7.40
2023-04-16T22:08:31.212Z,7.40
2023-04-16T22:11:01.636Z,7.50
2023-04-16T22:13:32.753Z,7.40
2023-04-16T22:16:02.714Z,7.40
2023-04-16T22:18:34.081Z,7.40
2023-04-16T22:21:04.191Z,7.40
2023-04-16T22:23:32.948Z,7.50
2023-04-16T22:26:03.072Z,7.40
2023-04-16T22:28:31.785Z,7.40
2023-04-16T22:31:00.588Z,7.30
2023-04-16T22:33:31.273Z,7.30
2023-04-16T22:36:01.612Z,7.30
2023-04-16T22:38:31.742Z,7.30
2023-04-16T22:41:00.473Z,7.30
2023-04-16T22:43:29.209Z,7.30
2023-04-16T22:46:04.984Z,7.30
2023-04-16T22:48:34.129Z,7.20
2023-04-16T22:51:02.895Z,7.20
2023-04-16T22:53:33.188Z,7.30
2023-04-16T22:56:02.335Z,7.20
2023-04-16T22:58:31.120Z,7.20
2023-04-16T23:01:01.916Z,7.20
2023-04-16T23:03:30.994Z,7.20
2023-04-16T23:05:59.826Z,7.20
2023-04-16T23:08:28.564Z,7.30
2023-04-16T23:10:58.756Z,7.30
2023-04-16T23:13:27.564Z,7.20
2023-04-16T23:15:56.504Z,7.20
2023-04-16T23:18:25.090Z,7.20
2023-04-16T23:20:53.985Z,7.20
2023-04-16T23:23:22.700Z,7.20
2023-04-16T23:25:54.605Z,7.20
2023-04-16T23:28:24.709Z,7.20
2023-04-16T23:30:54.331Z,7.20
2023-04-16T23:33:23.141Z,7.20
2023-04-16T23:35:51.760Z,7.20
2023-04-16T23:38:20.482Z,7.20
2023-04-16T23:40:49.259Z,7.20
2023-04-16T23:43:18.141Z,7.20
2023-04-16T23:45:48.432Z,7.30
2023-04-16T23:48:17.260Z,7.30
2023-04-16T23:50:46.074Z,7.20
2023-04-16T23:53:14.877Z,7.20
2023-04-16T23:55:43.589Z,7.20
2023-04-16T23:58:12.329Z,7.20
